Sawyer, Michigan
Current Conditions -  °F | °C
As of 4:35 AM on Tuesday 21 Oct 2014 (Local Time) from KMGC Reporting Station
Light Rain Light Rain  
Wind Chill:   Ceiling: 1600
Heat Index:   Visibility: 10mi
Dew Point:   Wind: 6mph
Humidity: 82%   Direction: 360°N
Pressure: 30"   Gusts: 9mph
Location:  41.89°N, 86.59°W
Report Text: KMGC 210835Z AUTO 36005G08KT 10SM -RA BKN016 OVC025 09/06 A3000 RMK AO2
Loading
Personal Weather Stations






























Interactive Weather Map
Tropical Storm Tracking
New forecast layout! Learn more

10-Day Weather Forecast

Advertisements
Track Severe Weather on mobile